| time (UTC) | temp F | wind direction | speed knots | gust knots | rain 1hr in | rain 24hr in | rain mn in | humidity % | barometer mb |
| 20260502140123 | 49 | 187 | 0.0 | 0.0 | 0.00 | 0.00 | 0.00 | 37 | 1021.8 |
| 20260502130655 | 37 | 213 | 0.0 | 0.0 | 0.00 | 0.00 | 0.00 | 59 | 1021.8 |
| 20260502130128 | 36 | 213 | 0.0 | 0.0 | 0.00 | 0.00 | 0.00 | 61 | 1021.8 |
| 20260502123629 | 34 | 208 | 0.0 | 0.0 | 0.00 | 0.00 | 0.00 | 69 | 1021.4 |
| 20260502123331 | 34 | 209 | 0.0 | 0.0 | 0.00 | 0.00 | 0.00 | 68 | 1021.4 |
| 20260502122801 | 34 | 210 | 0.0 | 0.0 | 0.00 | 0.00 | 0.00 | 68 | 1021.4 |
| 20260502122608 | 34 | 210 | 0.0 | 0.0 | 0.00 | 0.00 | 0.00 | 69 | 1021.4 |
| 20260502122129 | 34 | 208 | 0.0 | 0.0 | 0.00 | 0.00 | 0.00 | 68 | 1021.4 |
| 20260502121605 | 34 | 209 | 0.0 | 0.0 | 0.00 | 0.00 | 0.00 | 69 | 1021.4 |
| 20260502120947 | 34 | 209 | 0.0 | 0.0 | 0.00 | 0.00 | 0.00 | 68 | 1021.4 |
| 20260502120803 | 34 | 209 | 0.0 | 0.0 | 0.00 | 0.00 | 0.00 | 67 | 1021.4 |
| 20260502120450 | 34 | 209 | 0.0 | 0.0 | 0.00 | 0.00 | 0.00 | 67 | 1021.4 |
| 20260502115737 | 34 | 209 | 0.0 | 0.0 | 0.00 | 0.00 | 0.00 | 67 | 1021.0 |
| 20260502115444 | 34 | 209 | 0.0 | 0.0 | 0.00 | 0.00 | 0.00 | 66 | 1021.4 |
| 20260502115402 | 34 | 209 | 0.0 | 0.0 | 0.00 | 0.00 | 0.00 | 67 | 1021.4 |
| 20260502114714 | 35 | 209 | 0.0 | 0.0 | 0.00 | 0.00 | 0.00 | 67 | 1021.4 |
| 20260502114307 | 35 | 209 | 0.0 | 0.0 | 0.00 | 0.00 | 0.00 | 67 | 1021.0 |
| 20260502114153 | 35 | 209 | 0.0 | 0.0 | 0.00 | 0.00 | 0.00 | 66 | 1021.0 |
| 20260502113529 | 35 | 209 | 0.0 | 0.0 | 0.00 | 0.00 | 0.00 | 66 | 1021.0 |
| 20260502113159 | 35 | 209 | 0.0 | 0.0 | 0.00 | 0.00 | 0.00 | 65 | 1021.4 |
| 20260502112849 | 35 | 209 | 0.0 | 0.0 | 0.00 | 0.00 | 0.00 | 65 | 1021.0 |
| 20260502112241 | 35 | 209 | 0.0 | 0.0 | 0.00 | 0.00 | 0.00 | 65 | 1021.0 |
| 20260502112111 | 35 | 209 | 0.0 | 0.0 | 0.00 | 0.00 | 0.00 | 65 | 1021.4 |
| 20260502111728 | 35 | 209 | 0.0 | 0.0 | 0.00 | 0.00 | 0.00 | 65 | 1021.0 |
| 20260502111320 | 36 | 210 | 0.0 | 0.0 | 0.00 | 0.00 | 0.00 | 67 | 1021.0 |
| 20260502111154 | 36 | 210 | 0.0 | 0.0 | 0.00 | 0.00 | 0.00 | 67 | 1021.0 |
| 20260502110458 | 36 | 210 | 0.0 | 0.0 | 0.00 | 0.00 | 0.00 | 65 | 1021.0 |
| 20260502105929 | 36 | 200 | 0.0 | 0.0 | 0.00 | 0.00 | 0.00 | 66 | 1021.0 |
| 20260502105520 | 37 | 201 | 0.0 | 0.0 | 0.00 | 0.00 | 0.00 | 64 | 1021.0 |
| 20260502104832 | 37 | 223 | 0.0 | 0.0 | 0.00 | 0.00 | 0.00 | 63 | 1021.0 |
| 20260502104659 | 37 | 228 | 0.0 | 0.0 | 0.00 | 0.00 | 0.00 | 63 | 1021.0 |
| 20260502104150 | 37 | 262 | 0.0 | 0.0 | 0.00 | 0.00 | 0.00 | 63 | 1020.5 |
| 20260502103705 | 37 | 188 | 0.0 | 0.0 | 0.00 | 0.00 | 0.00 | 62 | 1021.4 |
| 20260502103528 | 38 | 193 | 0.0 | 0.0 | 0.00 | 0.00 | 0.00 | 61 | 1021.0 |
| 20260502103113 | 38 | 202 | 0.0 | 0.0 | 0.00 | 0.00 | 0.00 | 60 | 1021.0 |
| 20260502102654 | 38 | 197 | 0.0 | 0.0 | 0.00 | 0.00 | 0.00 | 59 | 1021.0 |
| 20260502102328 | 39 | 201 | 0.0 | 0.0 | 0.00 | 0.00 | 0.00 | 59 | 1021.0 |
| 20260502102143 | 39 | 198 | 0.0 | 0.0 | 0.00 | 0.00 | 0.00 | 58 | 1021.0 |
| 20260502101645 | 39 | 198 | 0.0 | 0.0 | 0.00 | 0.00 | 0.00 | 58 | 1021.0 |
| 20260502101028 | 40 | 197 | 0.0 | 0.0 | 0.00 | 0.00 | 0.00 | 57 | 1021.0 |
| 20260502100522 | 40 | 195 | 0.0 | 0.0 | 0.00 | 0.00 | 0.00 | 55 | 1021.0 |
| 20260502100332 | 40 | 194 | 0.0 | 0.0 | 0.00 | 0.00 | 0.00 | 54 | 1021.0 |
| 20260502091256 | 42 | 210 | 0.0 | 0.0 | 0.00 | 0.00 | 0.00 | 51 | 1020.5 |
| 20260502091128 | 42 | 199 | 0.0 | 0.0 | 0.00 | 0.00 | 0.00 | 51 | 1020.5 |
| 20260502090611 | 41 | 201 | 0.0 | 0.0 | 0.00 | 0.00 | 0.00 | 50 | 1020.5 |
| 20260502090247 | 41 | 201 | 0.0 | 0.0 | 0.00 | 0.00 | 0.00 | 50 | 1020.5 |
| 20260502071528 | 42 | 202 | 0.0 | 0.0 | 0.00 | 0.00 | 0.00 | 54 | 1021.4 |
| 20260502071004 | 42 | 200 | 0.0 | 0.0 | 0.00 | 0.00 | 0.00 | 53 | 1021.0 |
| 20260502070524 | 42 | 201 | 0.0 | 0.0 | 0.00 | 0.00 | 0.00 | 53 | 1021.4 |
| 20260502070346 | 42 | 202 | 0.0 | 0.0 | 0.00 | 0.00 | 0.00 | 53 | 1021.0 |
| 20260502065701 | 43 | 201 | 0.0 | 0.0 | 0.00 | 0.00 | 0.00 | 52 | 1021.4 |
| 20260502065514 | 43 | 201 | 0.0 | 0.0 | 0.00 | 0.00 | 0.00 | 51 | 1021.4 |
| 20260502065028 | 43 | 201 | 0.0 | 0.0 | 0.00 | 0.00 | 0.00 | 52 | 1021.4 |
| 20260502064528 | 44 | 201 | 0.0 | 0.0 | 0.00 | 0.00 | 0.00 | 52 | 1021.4 |
| 20260502064348 | 44 | 201 | 0.0 | 0.0 | 0.00 | 0.00 | 0.00 | 52 | 1021.4 |
| 20260502063901 | 44 | 201 | 0.0 | 0.0 | 0.00 | 0.00 | 0.00 | 50 | 1021.8 |
| 20260502063616 | 44 | 201 | 0.0 | 0.0 | 0.00 | 0.00 | 0.00 | 49 | 1021.4 |
| 20260502063449 | 44 | 201 | 0.0 | 0.0 | 0.00 | 0.00 | 0.00 | 49 | 1021.4 |
| 20260502062830 | 45 | 200 | 0.0 | 0.0 | 0.00 | 0.00 | 0.00 | 49 | 1021.4 |
| 20260502062416 | 45 | 203 | 0.0 | 0.0 | 0.00 | 0.00 | 0.00 | 48 | 1021.4 |
| 20260502062329 | 45 | 201 | 0.0 | 0.0 | 0.00 | 0.00 | 0.00 | 48 | 1021.4 |
| 20260502061538 | 45 | 202 | 0.0 | 0.0 | 0.00 | 0.00 | 0.00 | 47 | 1021.4 |
| 20260502061202 | 46 | 201 | 0.0 | 0.0 | 0.00 | 0.00 | 0.00 | 46 | 1021.4 |
| 20260502061013 | 46 | 201 | 0.0 | 0.0 | 0.00 | 0.00 | 0.00 | 46 | 1021.4 |
| 20260502060512 | 46 | 201 | 0.0 | 0.0 | 0.00 | 0.00 | 0.00 | 46 | 1021.8 |
| 20260502060212 | 46 | 201 | 0.0 | 0.0 | 0.00 | 0.00 | 0.00 | 45 | 1021.4 |
| 20260502060107 | 46 | 201 | 0.0 | 0.0 | 0.00 | 0.00 | 0.00 | 45 | 1021.0 |
| 20260502055323 | 46 | 201 | 0.0 | 0.0 | 0.00 | 0.00 | 0.00 | 45 | 1021.4 |
| 20260502054959 | 46 | 201 | 0.0 | 0.0 | 0.00 | 0.00 | 0.00 | 44 | 1021.4 |
| 20260502054649 | 46 | 201 | 0.0 | 0.0 | 0.00 | 0.00 | 0.00 | 43 | 1021.8 |
| 20260502054058 | 46 | 201 | 0.0 | 0.0 | 0.00 | 0.00 | 0.00 | 42 | 1021.4 |
| 20260502053911 | 47 | 201 | 0.0 | 0.0 | 0.00 | 0.00 | 0.00 | 42 | 1021.4 |
| 20260502053529 | 47 | 201 | 0.0 | 0.0 | 0.00 | 0.00 | 0.00 | 42 | 1021.4 |
| 20260502052839 | 47 | 201 | 0.0 | 0.0 | 0.00 | 0.00 | 0.00 | 42 | 1021.4 |
| 20260502052258 | 47 | 201 | 0.0 | 0.0 | 0.00 | 0.00 | 0.00 | 41 | 1021.4 |
| 20260502051728 | 48 | 202 | 0.0 | 0.0 | 0.00 | 0.00 | 0.00 | 41 | 1021.4 |
| 20260502051034 | 48 | 201 | 0.0 | 0.0 | 0.00 | 0.00 | 0.00 | 40 | 1021.4 |
| 20260502050629 | 48 | 204 | 0.0 | 0.0 | 0.00 | 0.00 | 0.00 | 41 | 1021.4 |
| 20260502050444 | 48 | 204 | 0.0 | 0.0 | 0.00 | 0.00 | 0.00 | 40 | 1021.4 |
| 20260502050139 | 49 | 205 | 0.0 | 0.0 | 0.00 | 0.00 | 0.00 | 40 | 1021.0 |
| 20260502045558 | 49 | 201 | 0.0 | 0.0 | 0.00 | 0.00 | 0.00 | 40 | 1021.4 |
| 20260502045328 | 49 | 201 | 0.0 | 0.0 | 0.00 | 0.00 | 0.00 | 40 | 1021.4 |
| 20260502044658 | 49 | 201 | 0.0 | 0.0 | 0.00 | 0.00 | 0.00 | 39 | 1021.4 |
| 20260502044339 | 49 | 201 | 0.0 | 0.0 | 0.00 | 0.00 | 0.00 | 38 | 1021.4 |
| 20260502044151 | 49 | 201 | 0.0 | 0.0 | 0.00 | 0.00 | 0.00 | 38 | 1021.0 |
| 20260502043528 | 49 | 202 | 0.0 | 0.0 | 0.00 | 0.00 | 0.00 | 37 | 1021.4 |
| 20260502043229 | 49 | 209 | 0.0 | 0.0 | 0.00 | 0.00 | 0.00 | 39 | 1021.4 |
| 20260502042902 | 49 | 209 | 0.0 | 0.0 | 0.00 | 0.00 | 0.00 | 39 | 1021.4 |
| 20260502042245 | 48 | 205 | 0.0 | 0.0 | 0.00 | 0.00 | 0.00 | 38 | 1021.0 |
| 20260502042142 | 48 | 205 | 0.0 | 0.0 | 0.00 | 0.00 | 0.00 | 38 | 1021.0 |
| 20260502042120 | 48 | 205 | 0.0 | 0.0 | 0.00 | 0.00 | 0.00 | 38 | 1021.4 |
| 20260502041028 | 48 | 205 | 0.0 | 0.0 | 0.00 | 0.00 | 0.00 | 38 | 1021.0 |
| 20260502040759 | 48 | 209 | 0.0 | 0.0 | 0.00 | 0.00 | 0.00 | 38 | 1020.5 |
| 20260502035850 | 48 | 209 | 0.0 | 0.0 | 0.00 | 0.00 | 0.00 | 39 | 1021.0 |
| 20260502035258 | 49 | 205 | 0.0 | 0.0 | 0.00 | 0.00 | 0.00 | 40 | 1020.5 |
| 20260502034728 | 49 | 205 | 0.0 | 0.0 | 0.00 | 0.00 | 0.00 | 39 | 1020.5 |
| 20260502034210 | 49 | 205 | 0.0 | 0.0 | 0.00 | 0.00 | 0.00 | 39 | 1020.5 |
| 20260502033719 | 49 | 208 | 0.0 | 0.0 | 0.00 | 0.00 | 0.00 | 38 | 1020.5 |
| 20260502033552 | 49 | 208 | 0.0 | 0.0 | 0.00 | 0.00 | 0.00 | 38 | 1020.5 |
| 20260502032928 | 49 | 205 | 0.0 | 0.0 | 0.00 | 0.00 | 0.00 | 38 | 1020.2 |
| 20260502032558 | 49 | 205 | 0.0 | 0.0 | 0.00 | 0.00 | 0.00 | 37 | 1020.5 |
| 20260502032410 | 49 | 205 | 0.0 | 0.0 | 0.00 | 0.00 | 0.00 | 37 | 1020.2 |
| 20260502031741 | 49 | 200 | 0.0 | 0.0 | 0.00 | 0.00 | 0.00 | 37 | 1020.2 |
| 20260502031624 | 49 | 200 | 0.0 | 0.0 | 0.00 | 0.00 | 0.00 | 36 | 1020.2 |
| 20260502031457 | 49 | 200 | 0.0 | 0.0 | 0.00 | 0.00 | 0.00 | 36 | 1020.2 |
| 20260502030527 | 49 | 199 | 0.0 | 0.0 | 0.00 | 0.00 | 0.00 | 35 | 1020.2 |
| 20260502030356 | 49 | 199 | 0.0 | 0.0 | 0.00 | 0.00 | 0.00 | 35 | 1020.2 |
| 20260502025858 | 49 | 208 | 0.0 | 0.0 | 0.00 | 0.00 | 0.00 | 36 | 1020.2 |
| 20260502025329 | 49 | 191 | 0.0 | 0.0 | 0.00 | 0.00 | 0.00 | 37 | 1019.8 |
| 20260502024649 | 49 | 191 | 0.0 | 0.0 | 0.00 | 0.00 | 0.00 | 37 | 1019.8 |
| 20260502024313 | 50 | 191 | 0.0 | 0.0 | 0.00 | 0.00 | 0.00 | 36 | 1019.8 |
| 20260502024113 | 50 | 192 | 0.0 | 0.0 | 0.00 | 0.00 | 0.00 | 36 | 1019.4 |
| 20260502023601 | 50 | 191 | 0.0 | 0.0 | 0.00 | 0.00 | 0.00 | 36 | 1019.4 |
| 20260502023226 | 51 | 191 | 0.0 | 0.0 | 0.00 | 0.00 | 0.00 | 36 | 1019.4 |
| 20260502023143 | 51 | 191 | 0.0 | 0.0 | 0.00 | 0.00 | 0.00 | 36 | 1019.4 |
| 20260502022341 | 52 | 191 | 0.0 | 0.0 | 0.00 | 0.00 | 0.00 | 35 | 1019.4 |
| 20260502022057 | 52 | 191 | 0.0 | 0.0 | 0.00 | 0.00 | 0.00 | 35 | 1019.4 |
| 20260502021728 | 53 | 191 | 0.0 | 0.0 | 0.00 | 0.00 | 0.00 | 34 | 1019.0 |
| 20260502021209 | 54 | 191 | 0.0 | 0.0 | 0.00 | 0.00 | 0.00 | 33 | 1019.0 |
| 20260502021049 | 54 | 191 | 0.0 | 0.0 | 0.00 | 0.00 | 0.00 | 33 | 1019.0 |
| 20260502020628 | 55 | 191 | 0.0 | 0.0 | 0.00 | 0.00 | 0.00 | 32 | 1019.0 |
| 20260502020122 | 55 | 191 | 0.0 | 0.0 | 0.00 | 0.00 | 0.00 | 30 | 1019.0 |
| 20260502015928 | 56 | 191 | 0.0 | 0.0 | 0.00 | 0.00 | 0.00 | 30 | 1019.0 |
| 20260502015558 | 56 | 191 | 0.0 | 0.0 | 0.00 | 0.00 | 0.00 | 30 | 1019.0 |
| 20260502014913 | 56 | 177 | 0.0 | 1.7 | 0.00 | 0.00 | 0.00 | 27 | 1018.7 |
| 20260502014217 | 57 | 229 | 0.0 | 1.7 | 0.00 | 0.00 | 0.00 | 27 | 1019.0 |
| 20260502013759 | 57 | 224 | 0.0 | 1.7 | 0.00 | 0.00 | 0.00 | 26 | 1018.7 |
| 20260502013449 | 57 | 217 | 0.0 | 1.7 | 0.00 | 0.00 | 0.00 | 26 | 1018.7 |
| 20260502013155 | 57 | 315 | 0.0 | 1.7 | 0.00 | 0.00 | 0.00 | 25 | 1018.7 |
| 20260502012629 | 57 | 186 | 0.0 | 0.0 | 0.00 | 0.00 | 0.00 | 24 | 1018.7 |
| 20260502012326 | 57 | 175 | 0.0 | 0.0 | 0.00 | 0.00 | 0.00 | 26 | 1018.7 |
| 20260502012006 | 58 | 193 | 0.0 | 4.3 | 0.00 | 0.00 | 0.00 | 26 | 1018.7 |
| 20260502011649 | 58 | 177 | 0.0 | 1.7 | 0.00 | 0.00 | 0.00 | 26 | 1018.7 |
| 20260502011514 | 58 | 193 | 0.0 | 4.3 | 0.00 | 0.00 | 0.00 | 26 | 1018.7 |
| 20260502011313 | 58 | 195 | 0.0 | 4.3 | 0.00 | 0.00 | 0.00 | 25 | 1018.2 |
| 20260502010526 | 58 | 216 | 0.0 | 1.7 | 0.00 | 0.00 | 0.00 | 25 | 1018.2 |
| 20260502010346 | 59 | 208 | 0.0 | 1.7 | 0.00 | 0.00 | 0.00 | 25 | 1018.2 |
| 20260502005957 | 59 | 205 | 0.0 | 1.7 | 0.00 | 0.00 | 0.00 | 24 | 1018.7 |
| 20260502005341 | 59 | 264 | 0.0 | 1.7 | 0.00 | 0.00 | 0.00 | 24 | 1018.2 |
| 20260502005216 | 59 | 181 | 0.0 | 1.7 | 0.00 | 0.00 | 0.00 | 24 | 1018.2 |
| 20260502004728 | 59 | 167 | 0.0 | 1.7 | 0.00 | 0.00 | 0.00 | 22 | 1018.2 |
| 20260502004050 | 59 | 178 | 1.7 | 1.7 | 0.00 | 0.00 | 0.00 | 22 | 1018.2 |
| 20260502003450 | 59 | 205 | 0.0 | 1.7 | 0.00 | 0.00 | 0.00 | 22 | 1018.2 |
| 20260502002907 | 59 | 233 | 1.7 | 1.7 | 0.00 | 0.00 | 0.00 | 23 | 1018.2 |
| 20260502002613 | 59 | 7 | 0.0 | 1.7 | 0.00 | 0.00 | 0.00 | 22 | 1018.2 |
| 20260502001752 | 59 | 260 | 0.9 | 1.7 | 0.00 | 0.00 | 0.00 | 22 | 1018.2 |
| 20260502001128 | 60 | 179 | 0.0 | 4.3 | 0.00 | 0.00 | 0.00 | 22 | 1017.8 |
| 20260502000609 | 60 | 74 | 1.7 | 4.3 | 0.00 | 0.00 | 0.00 | 22 | 1017.8 |
| 20260502000439 | 60 | 59 | 2.6 | 4.3 | 0.00 | 0.00 | 0.00 | 22 | 1018.2 |
| 20260501235912 | 60 | 322 | 1.7 | 4.3 | 0.00 | 0.00 | 0.00 | 23 | 1018.2 |
| 20260501235549 | 60 | 212 | 0.0 | 0.0 | 0.00 | 0.00 | 0.00 | 23 | 1018.2 |
| 20260501235400 | 60 | 213 | 0.0 | 0.0 | 0.00 | 0.00 | 0.00 | 24 | 1018.2 |
| 20260501234841 | 60 | 203 | 0.0 | 1.7 | 0.00 | 0.00 | 0.00 | 22 | 1018.2 |
| 20260501234528 | 60 | 140 | 0.0 | 1.7 | 0.00 | 0.00 | 0.00 | 22 | 1018.2 |
| 20260501234329 | 60 | 287 | 0.9 | 1.7 | 0.00 | 0.00 | 0.00 | 23 | 1018.2 |
| 20260501234058 | 61 | 117 | 0.9 | 1.7 | 0.00 | 0.00 | 0.00 | 22 | 1018.2 |
| 20260501233529 | 61 | 216 | 0.0 | 4.3 | 0.00 | 0.00 | 0.00 | 22 | 1018.2 |
| 20260501233329 | 61 | 201 | 0.0 | 4.3 | 0.00 | 0.00 | 0.00 | 22 | 1017.8 |
| 20260501232701 | 61 | 86 | 2.6 | 7.0 | 0.00 | 0.00 | 0.00 | 22 | 1018.7 |
| 20260501232514 | 62 | 158 | 0.0 | 7.0 | 0.00 | 0.00 | 0.00 | 22 | 1018.2 |
| 20260501232137 | 62 | 63 | 0.0 | 7.0 | 0.00 | 0.00 | 0.00 | 22 | 1018.2 |
| 20260501231613 | 62 | 176 | 0.0 | 1.7 | 0.00 | 0.00 | 0.00 | 22 | 1018.2 |
| 20260501231426 | 62 | 71 | 0.0 | 4.3 | 0.00 | 0.00 | 0.00 | 22 | 1017.8 |
| 20260501231113 | 63 | 285 | 0.9 | 4.3 | 0.00 | 0.00 | 0.00 | 22 | 1018.2 |
| 20260501230552 | 63 | 184 | 0.0 | 7.0 | 0.00 | 0.00 | 0.00 | 21 | 1018.2 |
| 20260501230405 | 63 | 216 | 0.0 | 7.0 | 0.00 | 0.00 | 0.00 | 21 | 1017.8 |
| 20260501225923 | 64 | 220 | 0.0 | 7.0 | 0.00 | 0.00 | 0.00 | 21 | 1017.8 |
| 20260501225410 | 64 | 36 | 0.0 | 7.0 | 0.00 | 0.00 | 0.00 | 21 | 1018.2 |
| 20260501225239 | 64 | 58 | 0.0 | 7.0 | 0.00 | 0.00 | 0.00 | 22 | 1018.2 |
| 20260501224826 | 64 | 208 | 1.7 | 4.3 | 0.00 | 0.00 | 0.00 | 20 | 1017.8 |
| 20260501224321 | 64 | 57 | 1.7 | 1.7 | 0.00 | 0.00 | 0.00 | 20 | 1017.8 |
| 20260501224129 | 64 | 62 | 0.9 | 1.7 | 0.00 | 0.00 | 0.00 | 20 | 1017.8 |
| 20260501223758 | 63 | 222 | 0.0 | 4.3 | 0.00 | 0.00 | 0.00 | 21 | 1018.2 |
| 20260501223245 | 64 | 83 | 0.9 | 7.0 | 0.00 | 0.00 | 0.00 | 21 | 1017.8 |
| 20260501223114 | 64 | 154 | 1.7 | 7.0 | 0.00 | 0.00 | 0.00 | 20 | 1017.8 |
| 20260501222628 | 64 | 93 | 2.6 | 7.0 | 0.00 | 0.00 | 0.00 | 21 | 1017.8 |
| 20260501222128 | 64 | 11 | 1.7 | 4.3 | 0.00 | 0.00 | 0.00 | 21 | 1018.2 |
| 20260501221945 | 64 | 56 | 1.7 | 4.3 | 0.00 | 0.00 | 0.00 | 21 | 1017.8 |
| 20260501221622 | 65 | 68 | 2.6 | 4.3 | 0.00 | 0.00 | 0.00 | 22 | 1017.8 |
| 20260501221058 | 65 | 113 | 0.9 | 4.3 | 0.00 | 0.00 | 0.00 | 21 | 1018.2 |
| 20260501220911 | 65 | 64 | 0.0 | 4.3 | 0.00 | 0.00 | 0.00 | 22 | 1017.8 |
| 20260501220457 | 65 | 15 | 1.7 | 1.7 | 0.00 | 0.00 | 0.00 | 22 | 1018.2 |
| 20260501215835 | 65 | 224 | 0.9 | 4.3 | 0.00 | 0.00 | 0.00 | 21 | 1017.8 |
| 20260501215528 | 65 | 66 | 3.5 | 4.3 | 0.00 | 0.00 | 0.00 | 22 | 1018.2 |
| 20260501214833 | 65 | 156 | 0.0 | 1.7 | 0.00 | 0.00 | 0.00 | 21 | 1018.2 |
| 20260501214654 | 65 | 153 | 0.0 | 1.7 | 0.00 | 0.00 | 0.00 | 21 | 1018.2 |
| 20260501214127 | 64 | 149 | 1.7 | 8.7 | 0.00 | 0.00 | 0.00 | 23 | 1018.2 |
| 20260501213821 | 64 | 154 | 0.0 | 8.7 | 0.00 | 0.00 | 0.00 | 22 | 1018.7 |
| 20260501213510 | 64 | 233 | 1.7 | 8.7 | 0.00 | 0.00 | 0.00 | 23 | 1018.7 |
| 20260501213001 | 63 | 79 | 3.5 | 4.3 | 0.00 | 0.00 | 0.00 | 22 | 1018.7 |
| 20260501212755 | 63 | 234 | 0.0 | 4.3 | 0.00 | 0.00 | 0.00 | 23 | 1018.7 |
| 20260501212313 | 63 | 291 | 3.5 | 7.0 | 0.00 | 0.00 | 0.00 | 21 | 1018.7 |
| 20260501211752 | 63 | 47 | 0.0 | 4.3 | 0.00 | 0.00 | 0.00 | 22 | 1018.7 |
| 20260501211630 | 63 | 196 | 0.0 | 7.0 | 0.00 | 0.00 | 0.00 | 24 | 1018.7 |
| 20260501210611 | 63 | 92 | 1.7 | 4.3 | 0.00 | 0.00 | 0.00 | 24 | 1018.7 |
| 20260501210448 | 63 | 60 | 3.5 | 4.3 | 0.00 | 0.00 | 0.00 | 23 | 1018.7 |
| 20260501205857 | 63 | 328 | 1.7 | 4.3 | 0.00 | 0.00 | 0.00 | 23 | 1018.7 |
| 20260501205558 | 63 | 114 | 0.9 | 4.3 | 0.00 | 0.00 | 0.00 | 24 | 1019.0 |
| 20260501205523 | 63 | 127 | 0.0 | 4.3 | 0.00 | 0.00 | 0.00 | 24 | 1019.0 |
| 20260501204649 | 62 | 317 | 1.7 | 4.3 | 0.00 | 0.00 | 0.00 | 23 | 1018.7 |
| 20260501204502 | 62 | 201 | 1.7 | 4.3 | 0.00 | 0.00 | 0.00 | 23 | 1019.0 |
| 20260501204409 | 62 | 293 | 2.6 | 7.0 | 0.00 | 0.00 | 0.00 | 24 | 1019.0 |
| 20260501203521 | 62 | 74 | 3.5 | 7.0 | 0.00 | 0.00 | 0.00 | 25 | 1018.7 |
| 20260501203346 | 62 | 233 | 0.0 | 7.0 | 0.00 | 0.00 | 0.00 | 25 | 1019.0 |
| 20260501202848 | 62 | 185 | 2.6 | 4.3 | 0.00 | 0.00 | 0.00 | 25 | 1018.7 |
| 20260501202204 | 62 | 160 | 1.7 | 4.3 | 0.00 | 0.00 | 0.00 | 25 | 1019.0 |
| 20260501201639 | 62 | 301 | 0.9 | 4.3 | 0.00 | 0.00 | 0.00 | 26 | 1019.0 |
| 20260501201405 | 61 | 304 | 1.7 | 8.7 | 0.00 | 0.00 | 0.00 | 26 | 1019.0 |
| 20260501201237 | 61 | 304 | 1.7 | 8.7 | 0.00 | 0.00 | 0.00 | 26 | 1019.0 |
| 20260501200458 | 62 | 74 | 6.1 | 8.7 | 0.00 | 0.00 | 0.00 | 26 | 1019.0 |
| 20260501200109 | 61 | 291 | 0.9 | 7.0 | 0.00 | 0.00 | 0.00 | 27 | 1019.0 |
| 20260501195928 | 61 | 30 | 4.3 | 7.0 | 0.00 | 0.00 | 0.00 | 26 | 1019.0 |
| 20260501195328 | 61 | 62 | 5.2 | 7.0 | 0.00 | 0.00 | 0.00 | 27 | 1019.0 |
| 20260501195008 | 61 | 48 | 2.6 | 7.0 | 0.00 | 0.00 | 0.00 | 28 | 1019.0 |
| 20260501194657 | 61 | 74 | 6.1 | 7.0 | 0.00 | 0.00 | 0.00 | 28 | 1019.0 |
| 20260501194359 | 60 | 208 | 0.0 | 4.3 | 0.00 | 0.00 | 0.00 | 27 | 1019.4 |
| 20260501193930 | 60 | 273 | 2.6 | 4.3 | 0.00 | 0.00 | 0.00 | 26 | 1019.0 |
| 20260501193448 | 60 | 46 | 1.7 | 4.3 | 0.00 | 0.00 | 0.00 | 27 | 1019.0 |
| 20260501192819 | 60 | 185 | 0.0 | 4.3 | 0.00 | 0.00 | 0.00 | 27 | 1019.0 |
| 20260501192146 | 60 | 303 | 2.6 | 4.3 | 0.00 | 0.00 | 0.00 | 29 | 1019.0 |
| 20260501191636 | 60 | 101 | 1.7 | 13.0 | 0.00 | 0.00 | 0.00 | 28 | 1019.0 |
| 20260501191058 | 60 | 83 | 11.3 | 13.0 | 0.00 | 0.00 | 0.00 | 27 | 1019.0 |
| 20260501190528 | 60 | 229 | 0.9 | 7.0 | 0.00 | 0.00 | 0.00 | 28 | 1019.4 |
| 20260501185849 | 60 | 184 | 1.7 | 4.3 | 0.00 | 0.00 | 0.00 | 28 | 1019.4 |
| 20260501185513 | 60 | 279 | 0.0 | 4.3 | 0.00 | 0.00 | 0.00 | 28 | 1019.0 |
| 20260501185228 | 60 | 321 | 2.6 | 4.3 | 0.00 | 0.00 | 0.00 | 28 | 1019.4 |
| 20260501184545 | 59 | 272 | 0.0 | 7.0 | 0.00 | 0.00 | 0.00 | 29 | 1019.4 |
| 20260501184358 | 59 | 9 | 0.0 | 7.0 | 0.00 | 0.00 | 0.00 | 30 | 1019.0 |
| 20260501184308 | 59 | 264 | 1.7 | 7.0 | 0.00 | 0.00 | 0.00 | 31 | 1019.4 |
| 20260501183427 | 59 | 167 | 1.7 | 1.7 | 0.00 | 0.00 | 0.00 | 30 | 1019.4 |
| 20260501183229 | 59 | 96 | 0.9 | 4.3 | 0.00 | 0.00 | 0.00 | 30 | 1019.4 |
| 20260501182733 | 59 | 251 | 0.9 | 7.0 | 0.00 | 0.00 | 0.00 | 30 | 1019.4 |
| 20260501182222 | 59 | 202 | 1.7 | 7.0 | 0.00 | 0.00 | 0.00 | 32 | 1019.4 |
| 20260501182101 | 60 | 69 | 4.3 | 7.0 | 0.00 | 0.00 | 0.00 | 30 | 1019.4 |
| 20260501181456 | 59 | 305 | 1.7 | 1.7 | 0.00 | 0.00 | 0.00 | 29 | 1019.8 |
| 20260501181128 | 59 | 207 | 0.0 | 1.7 | 0.00 | 0.00 | 0.00 | 29 | 1019.4 |
| 20260501180929 | 59 | 191 | 1.7 | 1.7 | 0.00 | 0.00 | 0.00 | 29 | 1019.4 |
| 20260501180301 | 59 | 242 | 0.0 | 1.7 | 0.00 | 0.00 | 0.00 | 29 | 1019.8 |
| 20260501180028 | 59 | 275 | 1.7 | 1.7 | 0.00 | 0.00 | 0.00 | 29 | 1019.8 |
| 20260501175942 | 59 | 98 | 0.0 | 1.7 | 0.00 | 0.00 | 0.00 | 29 | 1019.8 |
| 20260501175128 | 59 | 91 | 0.0 | 7.0 | 0.00 | 0.00 | 0.00 | 31 | 1019.8 |
| 20260501174948 | 59 | 144 | 0.9 | 7.0 | 0.00 | 0.00 | 0.00 | 30 | 1019.8 |
| 20260501174501 | 58 | 73 | 5.2 | 7.0 | 0.00 | 0.00 | 0.00 | 30 | 1019.8 |
| 20260501173938 | 58 | 187 | 1.7 | 7.0 | 0.00 | 0.00 | 0.00 | 32 | 1019.8 |
| 20260501173413 | 58 | 312 | 3.5 | 7.0 | 0.00 | 0.00 | 0.00 | 29 | 1020.2 |
| 20260501172914 | 58 | 275 | 1.7 | 4.3 | 0.00 | 0.00 | 0.00 | 31 | 1019.8 |
| 20260501172435 | 57 | 261 | 0.9 | 4.3 | 0.00 | 0.00 | 0.00 | 31 | 1019.8 |
| 20260501171725 | 57 | 300 | 0.0 | 4.3 | 0.00 | 0.00 | 0.00 | 31 | 1019.8 |
| 20260501171546 | 57 | 177 | 0.0 | 4.3 | 0.00 | 0.00 | 0.00 | 30 | 1020.2 |
| 20260501170902 | 56 | 177 | 0.0 | 7.0 | 0.00 | 0.00 | 0.00 | 31 | 1020.2 |
| 20260501170856 | 56 | 174 | 0.0 | 7.0 | 0.00 | 0.00 | 0.00 | 32 | 1020.2 |
| 20260501170730 | 56 | 173 | 0.0 | 7.0 | 0.00 | 0.00 | 0.00 | 31 | 1019.8 |
| 20260501165746 | 57 | 291 | 2.6 | 4.3 | 0.00 | 0.00 | 0.00 | 33 | 1020.2 |
| 20260501165558 | 57 | 65 | 1.7 | 4.3 | 0.00 | 0.00 | 0.00 | 32 | 1020.2 |
| 20260501165452 | 57 | 94 | 2.6 | 4.3 | 0.00 | 0.00 | 0.00 | 33 | 1020.2 |
| 20260501164657 | 57 | 57 | 2.6 | 4.3 | 0.00 | 0.00 | 0.00 | 33 | 1020.2 |
| 20260501164510 | 57 | 70 | 3.5 | 4.3 | 0.00 | 0.00 | 0.00 | 33 | 1020.2 |
| 20260501164127 | 57 | 145 | 1.7 | 4.3 | 0.00 | 0.00 | 0.00 | 33 | 1020.2 |
| 20260501163609 | 57 | 109 | 0.0 | 7.0 | 0.00 | 0.00 | 0.00 | 32 | 1020.2 |
| 20260501163437 | 56 | 147 | 0.0 | 7.0 | 0.00 | 0.00 | 0.00 | 32 | 1020.2 |
| 20260501162951 | 56 | 215 | 1.7 | 4.3 | 0.00 | 0.00 | 0.00 | 33 | 1020.2 |
| 20260501162328 | 56 | 159 | 0.0 | 4.3 | 0.00 | 0.00 | 0.00 | 32 | 1020.2 |
| 20260501162311 | 56 | 269 | 1.7 | 4.3 | 0.00 | 0.00 | 0.00 | 33 | 1020.2 |
| 20260501161152 | 55 | 69 | 0.9 | 4.3 | 0.00 | 0.00 | 0.00 | 33 | 1020.2 |
| 20260501160527 | 55 | 63 | 2.6 | 4.3 | 0.00 | 0.00 | 0.00 | 31 | 1020.2 |
| 20260501160148 | 55 | 137 | 0.0 | 1.7 | 0.00 | 0.00 | 0.00 | 31 | 1019.8 |
| 20260501155912 | 55 | 185 | 0.0 | 1.7 | 0.00 | 0.00 | 0.00 | 35 | 1020.2 |
| 20260501155351 | 54 | 201 | 0.9 | 1.7 | 0.00 | 0.00 | 0.00 | 33 | 1019.8 |
| 20260501155034 | 54 | 162 | 0.0 | 1.7 | 0.00 | 0.00 | 0.00 | 36 | 1020.2 |
| 20260501154728 | 54 | 182 | 0.0 | 4.3 | 0.00 | 0.00 | 0.00 | 38 | 1019.8 |
| 20260501154440 | 54 | 82 | 0.0 | 4.3 | 0.00 | 0.00 | 0.00 | 37 | 1020.2 |
| 20260501153847 | 54 | 244 | 0.0 | 4.3 | 0.00 | 0.00 | 0.00 | 40 | 1020.2 |
| 20260501153628 | 54 | 232 | 0.0 | 4.3 | 0.00 | 0.00 | 0.00 | 40 | 1020.2 |
| 20260501153044 | 54 | 64 | 2.6 | 4.3 | 0.00 | 0.00 | 0.00 | 41 | 1020.2 |
| 20260501152708 | 54 | 74 | 0.9 | 1.7 | 0.00 | 0.00 | 0.00 | 41 | 1019.8 |
| 20260501152528 | 53 | 76 | 0.9 | 1.7 | 0.00 | 0.00 | 0.00 | 41 | 1020.2 |
| 20260501152027 | 53 | 89 | 0.0 | 1.7 | 0.00 | 0.00 | 0.00 | 41 | 1020.2 |
| 20260501151658 | 53 | 159 | 0.0 | 1.7 | 0.00 | 0.00 | 0.00 | 41 | 1020.2 |
| 20260501151428 | 53 | 208 | 0.0 | 1.7 | 0.00 | 0.00 | 0.00 | 41 | 1020.2 |
| 20260501150918 | 53 | 269 | 0.9 | 1.7 | 0.00 | 0.00 | 0.00 | 42 | 1020.2 |
| 20260501150539 | 53 | 104 | 0.0 | 4.3 | 0.00 | 0.00 | 0.00 | 42 | 1020.2 |
| 20260501150359 | 52 | 52 | 1.7 | 4.3 | 0.00 | 0.00 | 0.00 | 41 | 1020.2 |
| 20260501145746 | 52 | 303 | 2.6 | 4.3 | 0.00 | 0.00 | 0.00 | 42 | 1020.2 |
| 20260501145408 | 51 | 180 | 0.0 | 0.0 | 0.00 | 0.00 | 0.00 | 41 | 1020.2 |
| 20260501145213 | 51 | 190 | 0.0 | 0.0 | 0.00 | 0.00 | 0.00 | 42 | 1020.2 |
| 20260501144602 | 50 | 261 | 0.0 | 0.0 | 0.00 | 0.00 | 0.00 | 42 | 1020.2 |
| 20260501144229 | 49 | 92 | 0.0 | 1.7 | 0.00 | 0.00 | 0.00 | 44 | 1020.2 |
| 20260501143910 | 49 | 187 | 0.0 | 1.7 | 0.00 | 0.00 | 0.00 | 47 | 1020.2 |
| 20260501143332 | 48 | 200 | 0.0 | 7.0 | 0.00 | 0.00 | 0.00 | 48 | 1020.2 |
| 20260501143144 | 48 | 114 | 0.0 | 7.0 | 0.00 | 0.00 | 0.00 | 47 | 1020.2 |
| 20260501142733 | 48 | 188 | 2.6 | 7.0 | 0.00 | 0.00 | 0.00 | 48 | 1020.2 |